sensor_id;sensor_type;location;lat;lon;timestamp;temperature;humidity
14473;DHT22;7322;50.872;4.386;2022-12-31T00:01:26;17.20;99.90
14473;DHT22;7322;50.872;4.386;2022-12-31T00:03:57;17.20;99.90
14473;DHT22;7322;50.872;4.386;2022-12-31T00:06:27;17.20;99.90
14473;DHT22;7322;50.872;4.386;2022-12-31T00:08:56;17.20;99.90
14473;DHT22;7322;50.872;4.386;2022-12-31T00:11:24;17.20;99.90
14473;DHT22;7322;50.872;4.386;2022-12-31T00:13:52;17.20;99.90
14473;DHT22;7322;50.872;4.386;2022-12-31T00:16:22;17.20;99.90
14473;DHT22;7322;50.872;4.386;2022-12-31T00:18:52;17.20;99.90
14473;DHT22;7322;50.872;4.386;2022-12-31T00:21:21;17.20;99.90
14473;DHT22;7322;50.872;4.386;2022-12-31T00:23:48;17.20;99.90
14473;DHT22;7322;50.872;4.386;2022-12-31T00:26:17;17.20;99.90
14473;DHT22;7322;50.872;4.386;2022-12-31T00:28:46;17.20;99.90
14473;DHT22;7322;50.872;4.386;2022-12-31T00:31:14;17.20;99.90
14473;DHT22;7322;50.872;4.386;2022-12-31T00:33:43;17.20;99.90
14473;DHT22;7322;50.872;4.386;2022-12-31T00:36:12;17.20;99.90
14473;DHT22;7322;50.872;4.386;2022-12-31T00:38:42;17.20;99.90
14473;DHT22;7322;50.872;4.386;2022-12-31T00:41:10;17.20;99.90
14473;DHT22;7322;50.872;4.386;2022-12-31T00:43:38;17.20;99.90
14473;DHT22;7322;50.872;4.386;2022-12-31T00:46:13;17.20;99.90
14473;DHT22;7322;50.872;4.386;2022-12-31T00:48:43;17.20;99.90
14473;DHT22;7322;50.872;4.386;2022-12-31T00:51:12;17.20;99.90
14473;DHT22;7322;50.872;4.386;2022-12-31T00:53:41;17.20;99.90
14473;DHT22;7322;50.872;4.386;2022-12-31T00:56:11;17.20;99.90
14473;DHT22;7322;50.872;4.386;2022-12-31T00:58:38;17.20;99.90
14473;DHT22;7322;50.872;4.386;2022-12-31T01:01:09;17.20;99.90
14473;DHT22;7322;50.872;4.386;2022-12-31T01:03:37;17.20;99.90
14473;DHT22;7322;50.872;4.386;2022-12-31T01:06:06;17.20;99.90
14473;DHT22;7322;50.872;4.386;2022-12-31T01:08:33;17.20;99.90
14473;DHT22;7322;50.872;4.386;2022-12-31T01:11:04;17.20;99.90
14473;DHT22;7322;50.872;4.386;2022-12-31T01:13:49;17.20;99.90
14473;DHT22;7322;50.872;4.386;2022-12-31T01:16:17;17.20;99.90
14473;DHT22;7322;50.872;4.386;2022-12-31T01:18:44;17.20;99.90
14473;DHT22;7322;50.872;4.386;2022-12-31T01:21:13;17.20;99.90
14473;DHT22;7322;50.872;4.386;2022-12-31T01:23:41;17.20;99.90
14473;DHT22;7322;50.872;4.386;2022-12-31T01:26:12;17.30;99.90
14473;DHT22;7322;50.872;4.386;2022-12-31T01:28:39;17.30;99.90
14473;DHT22;7322;50.872;4.386;2022-12-31T01:31:09;17.30;99.90
14473;DHT22;7322;50.872;4.386;2022-12-31T01:33:37;17.30;99.90
14473;DHT22;7322;50.872;4.386;2022-12-31T01:36:07;17.30;99.90
14473;DHT22;7322;50.872;4.386;2022-12-31T01:38:35;17.30;99.90
14473;DHT22;7322;50.872;4.386;2022-12-31T01:41:03;17.30;99.90
14473;DHT22;7322;50.872;4.386;2022-12-31T01:43:47;17.30;99.90
14473;DHT22;7322;50.872;4.386;2022-12-31T01:46:23;17.20;99.90
14473;DHT22;7322;50.872;4.386;2022-12-31T01:48:53;17.30;99.90
14473;DHT22;7322;50.872;4.386;2022-12-31T01:51:21;17.30;99.90
14473;DHT22;7322;50.872;4.386;2022-12-31T01:53:49;17.30;99.90
14473;DHT22;7322;50.872;4.386;2022-12-31T01:56:18;17.30;99.90
14473;DHT22;7322;50.872;4.386;2022-12-31T01:58:49;17.30;99.90
14473;DHT22;7322;50.872;4.386;2022-12-31T02:01:22;17.30;99.90
14473;DHT22;7322;50.872;4.386;2022-12-31T02:03:50;17.30;99.90
14473;DHT22;7322;50.872;4.386;2022-12-31T02:06:21;17.20;99.90
14473;DHT22;7322;50.872;4.386;2022-12-31T02:08:50;17.30;99.90
14473;DHT22;7322;50.872;4.386;2022-12-31T02:11:27;17.20;99.90
14473;DHT22;7322;50.872;4.386;2022-12-31T02:14:01;17.20;99.90
14473;DHT22;7322;50.872;4.386;2022-12-31T02:16:35;17.30;99.90
14473;DHT22;7322;50.872;4.386;2022-12-31T02:19:26;17.30;99.90
14473;DHT22;7322;50.872;4.386;2022-12-31T02:22:02;17.20;99.90
14473;DHT22;7322;50.872;4.386;2022-12-31T02:25:07;17.20;99.90
14473;DHT22;7322;50.872;4.386;2022-12-31T02:27:44;17.30;99.90
14473;DHT22;7322;50.872;4.386;2022-12-31T02:30:17;17.20;99.90
14473;DHT22;7322;50.872;4.386;2022-12-31T02:32:55;17.20;99.90
14473;DHT22;7322;50.872;4.386;2022-12-31T02:35:27;17.30;99.90
14473;DHT22;7322;50.872;4.386;2022-12-31T02:38:00;17.20;99.90
14473;DHT22;7322;50.872;4.386;2022-12-31T02:40:32;17.20;99.90
14473;DHT22;7322;50.872;4.386;2022-12-31T02:43:00;17.30;99.90
14473;DHT22;7322;50.872;4.386;2022-12-31T02:45:33;17.20;99.90
14473;DHT22;7322;50.872;4.386;2022-12-31T02:48:33;17.20;99.90
14473;DHT22;7322;50.872;4.386;2022-12-31T02:51:12;17.30;99.90
14473;DHT22;7322;50.872;4.386;2022-12-31T02:56:52;17.20;99.90
14473;DHT22;7322;50.872;4.386;2022-12-31T02:59:28;17.20;99.90
14473;DHT22;7322;50.872;4.386;2022-12-31T03:02:22;17.30;99.90
14473;DHT22;7322;50.872;4.386;2022-12-31T03:04:51;17.20;99.90
14473;DHT22;7322;50.872;4.386;2022-12-31T03:07:21;17.20;99.90
14473;DHT22;7322;50.872;4.386;2022-12-31T03:09:49;17.20;99.90
14473;DHT22;7322;50.872;4.386;2022-12-31T03:12:19;17.20;99.90
14473;DHT22;7322;50.872;4.386;2022-12-31T03:15:05;17.20;99.90
14473;DHT22;7322;50.872;4.386;2022-12-31T03:17:51;17.20;99.90
14473;DHT22;7322;50.872;4.386;2022-12-31T03:20:21;17.30;99.90
14473;DHT22;7322;50.872;4.386;2022-12-31T03:23:07;17.30;99.90
14473;DHT22;7322;50.872;4.386;2022-12-31T03:25:38;17.30;99.90
14473;DHT22;7322;50.872;4.386;2022-12-31T03:28:06;17.30;99.90
14473;DHT22;7322;50.872;4.386;2022-12-31T03:30:33;17.30;99.90
14473;DHT22;7322;50.872;4.386;2022-12-31T03:33:02;17.20;99.90
14473;DHT22;7322;50.872;4.386;2022-12-31T03:35:33;17.20;99.90
14473;DHT22;7322;50.872;4.386;2022-12-31T03:38:01;17.30;99.90
14473;DHT22;7322;50.872;4.386;2022-12-31T03:40:30;17.30;99.90
14473;DHT22;7322;50.872;4.386;2022-12-31T03:42:57;17.30;99.90
14473;DHT22;7322;50.872;4.386;2022-12-31T03:45:24;17.30;99.90
14473;DHT22;7322;50.872;4.386;2022-12-31T03:47:51;17.20;99.90
14473;DHT22;7322;50.872;4.386;2022-12-31T03:50:20;17.30;99.90
14473;DHT22;7322;50.872;4.386;2022-12-31T03:52:47;17.30;99.90
14473;DHT22;7322;50.872;4.386;2022-12-31T03:55:14;17.30;99.90
14473;DHT22;7322;50.872;4.386;2022-12-31T03:57:42;17.30;99.90
14473;DHT22;7322;50.872;4.386;2022-12-31T04:00:13;17.30;99.90
14473;DHT22;7322;50.872;4.386;2022-12-31T04:02:42;17.30;99.90
14473;DHT22;7322;50.872;4.386;2022-12-31T04:05:09;17.30;99.90
14473;DHT22;7322;50.872;4.386;2022-12-31T04:07:38;17.30;99.90
14473;DHT22;7322;50.872;4.386;2022-12-31T04:10:08;17.30;99.90
14473;DHT22;7322;50.872;4.386;2022-12-31T04:12:36;17.30;99.90
14473;DHT22;7322;50.872;4.386;2022-12-31T04:15:04;17.30;99.90
14473;DHT22;7322;50.872;4.386;2022-12-31T04:17:31;17.30;99.90
14473;DHT22;7322;50.872;4.386;2022-12-31T04:19:58;17.30;99.90
14473;DHT22;7322;50.872;4.386;2022-12-31T04:22:25;17.30;99.90
14473;DHT22;7322;50.872;4.386;2022-12-31T04:24:54;17.40;99.90
14473;DHT22;7322;50.872;4.386;2022-12-31T04:27:21;17.40;99.90
14473;DHT22;7322;50.872;4.386;2022-12-31T04:29:50;17.40;99.90
14473;DHT22;7322;50.872;4.386;2022-12-31T04:32:18;17.40;99.90
14473;DHT22;7322;50.872;4.386;2022-12-31T04:34:45;17.40;99.90
14473;DHT22;7322;50.872;4.386;2022-12-31T04:37:13;17.40;99.90
14473;DHT22;7322;50.872;4.386;2022-12-31T04:39:40;17.40;99.90
14473;DHT22;7322;50.872;4.386;2022-12-31T04:42:08;17.40;99.90
14473;DHT22;7322;50.872;4.386;2022-12-31T04:44:35;17.40;99.90
14473;DHT22;7322;50.872;4.386;2022-12-31T04:47:02;17.40;99.90
14473;DHT22;7322;50.872;4.386;2022-12-31T04:49:29;17.40;99.90
14473;DHT22;7322;50.872;4.386;2022-12-31T04:51:57;17.40;99.90
14473;DHT22;7322;50.872;4.386;2022-12-31T04:54:24;17.40;99.90
14473;DHT22;7322;50.872;4.386;2022-12-31T04:56:51;17.50;99.90
14473;DHT22;7322;50.872;4.386;2022-12-31T04:59:19;17.40;99.90
14473;DHT22;7322;50.872;4.386;2022-12-31T05:01:47;17.40;99.90
14473;DHT22;7322;50.872;4.386;2022-12-31T05:04:15;17.40;99.90
14473;DHT22;7322;50.872;4.386;2022-12-31T05:06:41;17.40;99.90
14473;DHT22;7322;50.872;4.386;2022-12-31T05:09:08;17.40;99.90
14473;DHT22;7322;50.872;4.386;2022-12-31T05:11:35;17.40;99.90
14473;DHT22;7322;50.872;4.386;2022-12-31T05:14:03;17.40;99.90
14473;DHT22;7322;50.872;4.386;2022-12-31T05:16:32;17.40;99.90
14473;DHT22;7322;50.872;4.386;2022-12-31T05:18:59;17.40;99.90
14473;DHT22;7322;50.872;4.386;2022-12-31T05:21:26;17.40;99.90
14473;DHT22;7322;50.872;4.386;2022-12-31T05:23:53;17.40;99.90
14473;DHT22;7322;50.872;4.386;2022-12-31T05:26:22;17.50;99.90
14473;DHT22;7322;50.872;4.386;2022-12-31T05:28:55;17.50;99.90
14473;DHT22;7322;50.872;4.386;2022-12-31T05:31:25;17.50;99.90
14473;DHT22;7322;50.872;4.386;2022-12-31T05:33:53;17.50;99.90
14473;DHT22;7322;50.872;4.386;2022-12-31T05:36:20;17.50;99.90
14473;DHT22;7322;50.872;4.386;2022-12-31T05:38:47;17.50;99.90
14473;DHT22;7322;50.872;4.386;2022-12-31T05:41:14;17.50;99.90
14473;DHT22;7322;50.872;4.386;2022-12-31T05:43:41;17.50;99.90
14473;DHT22;7322;50.872;4.386;2022-12-31T05:46:08;17.50;99.90
14473;DHT22;7322;50.872;4.386;2022-12-31T05:48:35;17.50;99.90
14473;DHT22;7322;50.872;4.386;2022-12-31T05:51:04;17.50;99.90
14473;DHT22;7322;50.872;4.386;2022-12-31T05:53:31;17.50;99.90
14473;DHT22;7322;50.872;4.386;2022-12-31T05:55:59;17.50;99.90
14473;DHT22;7322;50.872;4.386;2022-12-31T05:58:25;17.50;99.90
14473;DHT22;7322;50.872;4.386;2022-12-31T06:00:52;17.50;99.90
14473;DHT22;7322;50.872;4.386;2022-12-31T06:03:19;17.50;99.90
14473;DHT22;7322;50.872;4.386;2022-12-31T06:05:46;17.50;99.90
14473;DHT22;7322;50.872;4.386;2022-12-31T06:08:16;17.50;99.90
14473;DHT22;7322;50.872;4.386;2022-12-31T06:10:42;17.50;99.90
14473;DHT22;7322;50.872;4.386;2022-12-31T06:13:09;17.50;99.90
14473;DHT22;7322;50.872;4.386;2022-12-31T06:15:38;17.50;99.90
14473;DHT22;7322;50.872;4.386;2022-12-31T06:18:05;17.50;99.90
14473;DHT22;7322;50.872;4.386;2022-12-31T06:20:32;17.50;99.90
14473;DHT22;7322;50.872;4.386;2022-12-31T06:23:01;17.50;99.90
14473;DHT22;7322;50.872;4.386;2022-12-31T06:25:30;17.50;99.90
14473;DHT22;7322;50.872;4.386;2022-12-31T06:27:57;17.50;99.90
14473;DHT22;7322;50.872;4.386;2022-12-31T06:30:25;17.50;99.90
14473;DHT22;7322;50.872;4.386;2022-12-31T06:32:51;17.50;99.90
14473;DHT22;7322;50.872;4.386;2022-12-31T06:35:20;17.50;99.90
14473;DHT22;7322;50.872;4.386;2022-12-31T06:37:48;17.50;99.90
14473;DHT22;7322;50.872;4.386;2022-12-31T06:40:15;17.50;99.90
14473;DHT22;7322;50.872;4.386;2022-12-31T06:42:43;17.50;99.90
14473;DHT22;7322;50.872;4.386;2022-12-31T06:45:10;17.50;99.90
14473;DHT22;7322;50.872;4.386;2022-12-31T06:47:37;17.50;99.90
14473;DHT22;7322;50.872;4.386;2022-12-31T06:50:05;17.60;99.90
14473;DHT22;7322;50.872;4.386;2022-12-31T06:52:33;17.70;99.90
14473;DHT22;7322;50.872;4.386;2022-12-31T06:55:01;17.80;99.90
14473;DHT22;7322;50.872;4.386;2022-12-31T06:57:29;17.90;99.90
14473;DHT22;7322;50.872;4.386;2022-12-31T06:59:59;18.00;99.90
14473;DHT22;7322;50.872;4.386;2022-12-31T07:02:39;18.00;99.90
14473;DHT22;7322;50.872;4.386;2022-12-31T07:05:29;18.20;99.90
14473;DHT22;7322;50.872;4.386;2022-12-31T07:08:07;18.30;99.90
14473;DHT22;7322;50.872;4.386;2022-12-31T07:10:43;18.40;99.90
14473;DHT22;7322;50.872;4.386;2022-12-31T07:16:26;18.50;99.90
14473;DHT22;7322;50.872;4.386;2022-12-31T07:19:04;18.60;99.90
14473;DHT22;7322;50.872;4.386;2022-12-31T07:21:35;18.70;99.90
14473;DHT22;7322;50.872;4.386;2022-12-31T07:24:05;18.70;99.90
14473;DHT22;7322;50.872;4.386;2022-12-31T07:26:43;18.80;99.90
14473;DHT22;7322;50.872;4.386;2022-12-31T07:29:17;18.80;99.90
14473;DHT22;7322;50.872;4.386;2022-12-31T07:31:57;18.90;99.90
14473;DHT22;7322;50.872;4.386;2022-12-31T07:34:36;19.00;99.90
14473;DHT22;7322;50.872;4.386;2022-12-31T07:37:10;19.00;99.90
14473;DHT22;7322;50.872;4.386;2022-12-31T07:39:44;19.00;99.90
14473;DHT22;7322;50.872;4.386;2022-12-31T07:42:17;19.10;99.90
14473;DHT22;7322;50.872;4.386;2022-12-31T07:44:57;19.10;99.90
14473;DHT22;7322;50.872;4.386;2022-12-31T07:47:27;19.10;99.90
14473;DHT22;7322;50.872;4.386;2022-12-31T07:49:55;19.10;99.90
14473;DHT22;7322;50.872;4.386;2022-12-31T07:52:23;19.10;99.90
14473;DHT22;7322;50.872;4.386;2022-12-31T07:54:50;19.10;99.90
14473;DHT22;7322;50.872;4.386;2022-12-31T07:57:18;19.20;99.90
14473;DHT22;7322;50.872;4.386;2022-12-31T08:00:04;19.20;99.90
14473;DHT22;7322;50.872;4.386;2022-12-31T08:02:56;19.20;99.90
14473;DHT22;7322;50.872;4.386;2022-12-31T08:05:32;19.20;99.90
14473;DHT22;7322;50.872;4.386;2022-12-31T08:08:14;19.20;99.90
14473;DHT22;7322;50.872;4.386;2022-12-31T08:10:50;19.20;99.90
14473;DHT22;7322;50.872;4.386;2022-12-31T08:13:27;19.20;99.90
14473;DHT22;7322;50.872;4.386;2022-12-31T08:15:55;19.30;99.90
14473;DHT22;7322;50.872;4.386;2022-12-31T08:18:24;19.30;99.90
14473;DHT22;7322;50.872;4.386;2022-12-31T08:21:09;19.30;99.90
14473;DHT22;7322;50.872;4.386;2022-12-31T08:23:48;19.30;99.90
14473;DHT22;7322;50.872;4.386;2022-12-31T08:26:29;19.30;99.90
14473;DHT22;7322;50.872;4.386;2022-12-31T08:29:10;19.30;99.90
14473;DHT22;7322;50.872;4.386;2022-12-31T08:31:48;19.30;99.90
14473;DHT22;7322;50.872;4.386;2022-12-31T08:34:29;19.40;99.90
14473;DHT22;7322;50.872;4.386;2022-12-31T08:37:02;19.40;99.90
14473;DHT22;7322;50.872;4.386;2022-12-31T08:39:49;19.40;99.90
14473;DHT22;7322;50.872;4.386;2022-12-31T08:42:26;19.50;99.90
14473;DHT22;7322;50.872;4.386;2022-12-31T08:45:03;19.40;99.90
14473;DHT22;7322;50.872;4.386;2022-12-31T08:47:42;19.50;99.90
14473;DHT22;7322;50.872;4.386;2022-12-31T08:50:18;19.50;99.90
14473;DHT22;7322;50.872;4.386;2022-12-31T08:52:47;19.50;99.90
14473;DHT22;7322;50.872;4.386;2022-12-31T08:55:15;19.50;99.90
14473;DHT22;7322;50.872;4.386;2022-12-31T08:58:02;19.50;99.90
14473;DHT22;7322;50.872;4.386;2022-12-31T09:00:34;19.60;99.90
14473;DHT22;7322;50.872;4.386;2022-12-31T09:03:17;19.60;99.90
14473;DHT22;7322;50.872;4.386;2022-12-31T09:06:00;19.60;99.90
14473;DHT22;7322;50.872;4.386;2022-12-31T09:08:37;19.60;99.90
14473;DHT22;7322;50.872;4.386;2022-12-31T09:11:12;19.60;99.90
14473;DHT22;7322;50.872;4.386;2022-12-31T09:13:58;19.60;99.90
14473;DHT22;7322;50.872;4.386;2022-12-31T09:16:33;19.60;99.90
14473;DHT22;7322;50.872;4.386;2022-12-31T09:19:02;19.60;99.90
14473;DHT22;7322;50.872;4.386;2022-12-31T09:21:32;19.60;99.90
14473;DHT22;7322;50.872;4.386;2022-12-31T09:24:00;19.60;99.90
14473;DHT22;7322;50.872;4.386;2022-12-31T09:26:40;19.60;99.90
14473;DHT22;7322;50.872;4.386;2022-12-31T09:29:18;19.60;99.90
14473;DHT22;7322;50.872;4.386;2022-12-31T09:31:54;19.50;99.90
14473;DHT22;7322;50.872;4.386;2022-12-31T09:34:28;19.60;99.90
14473;DHT22;7322;50.872;4.386;2022-12-31T09:37:04;19.50;99.90
14473;DHT22;7322;50.872;4.386;2022-12-31T09:39:39;19.50;99.90
14473;DHT22;7322;50.872;4.386;2022-12-31T09:42:37;19.50;99.90
14473;DHT22;7322;50.872;4.386;2022-12-31T09:48:31;19.50;99.90
14473;DHT22;7322;50.872;4.386;2022-12-31T09:51:12;19.50;99.90
14473;DHT22;7322;50.872;4.386;2022-12-31T09:54:07;19.50;99.90
14473;DHT22;7322;50.872;4.386;2022-12-31T09:56:42;19.50;99.90
14473;DHT22;7322;50.872;4.386;2022-12-31T09:59:23;19.50;99.90
14473;DHT22;7322;50.872;4.386;2022-12-31T10:01:59;19.50;99.90
14473;DHT22;7322;50.872;4.386;2022-12-31T10:04:49;19.50;99.90
14473;DHT22;7322;50.872;4.386;2022-12-31T10:07:30;19.50;99.90
14473;DHT22;7322;50.872;4.386;2022-12-31T10:10:14;19.40;99.90
14473;DHT22;7322;50.872;4.386;2022-12-31T10:13:04;19.50;99.90
14473;DHT22;7322;50.872;4.386;2022-12-31T10:15:49;19.50;99.90
14473;DHT22;7322;50.872;4.386;2022-12-31T10:18:31;19.40;99.90
14473;DHT22;7322;50.872;4.386;2022-12-31T10:21:18;19.40;99.90
14473;DHT22;7322;50.872;4.386;2022-12-31T10:27:11;19.40;99.90
14473;DHT22;7322;50.872;4.386;2022-12-31T10:29:46;19.40;99.90
14473;DHT22;7322;50.872;4.386;2022-12-31T10:32:17;19.40;99.90
14473;DHT22;7322;50.872;4.386;2022-12-31T10:34:53;19.40;99.90
14473;DHT22;7322;50.872;4.386;2022-12-31T10:37:23;19.40;99.90
14473;DHT22;7322;50.872;4.386;2022-12-31T10:40:13;19.40;99.90
14473;DHT22;7322;50.872;4.386;2022-12-31T10:52:24;19.20;99.90
14473;DHT22;7322;50.872;4.386;2022-12-31T11:01:21;19.20;99.90
14473;DHT22;7322;50.872;4.386;2022-12-31T11:04:33;19.10;99.90
14473;DHT22;7322;50.872;4.386;2022-12-31T11:07:39;19.10;99.90
14473;DHT22;7322;50.872;4.386;2022-12-31T11:13:38;19.00;99.90
14473;DHT22;7322;50.872;4.386;2022-12-31T11:16:29;19.00;99.90
14473;DHT22;7322;50.872;4.386;2022-12-31T11:19:04;19.00;99.90
14473;DHT22;7322;50.872;4.386;2022-12-31T11:21:45;19.00;99.90
14473;DHT22;7322;50.872;4.386;2022-12-31T11:24:27;19.00;99.90
14473;DHT22;7322;50.872;4.386;2022-12-31T11:27:11;19.00;99.90
14473;DHT22;7322;50.872;4.386;2022-12-31T11:29:55;19.00;99.90
14473;DHT22;7322;50.872;4.386;2022-12-31T11:32:39;19.10;99.90
14473;DHT22;7322;50.872;4.386;2022-12-31T11:35:27;19.10;99.90
14473;DHT22;7322;50.872;4.386;2022-12-31T11:38:01;19.10;99.90
14473;DHT22;7322;50.872;4.386;2022-12-31T11:40:46;19.10;99.90
14473;DHT22;7322;50.872;4.386;2022-12-31T11:43:26;19.20;99.90
14473;DHT22;7322;50.872;4.386;2022-12-31T11:52:21;19.20;99.90
14473;DHT22;7322;50.872;4.386;2022-12-31T11:55:14;19.20;99.90
14473;DHT22;7322;50.872;4.386;2022-12-31T11:57:48;19.20;99.90
14473;DHT22;7322;50.872;4.386;2022-12-31T12:00:24;19.20;99.90
14473;DHT22;7322;50.872;4.386;2022-12-31T12:02:54;19.30;99.90
14473;DHT22;7322;50.872;4.386;2022-12-31T12:05:29;19.30;99.90
14473;DHT22;7322;50.872;4.386;2022-12-31T12:07:57;19.30;99.90
14473;DHT22;7322;50.872;4.386;2022-12-31T12:10:26;19.30;99.90
14473;DHT22;7322;50.872;4.386;2022-12-31T12:12:55;19.30;99.90
14473;DHT22;7322;50.872;4.386;2022-12-31T12:15:23;19.30;99.90
14473;DHT22;7322;50.872;4.386;2022-12-31T12:17:53;19.30;99.90
14473;DHT22;7322;50.872;4.386;2022-12-31T12:20:28;19.30;99.90
14473;DHT22;7322;50.872;4.386;2022-12-31T12:22:59;19.30;99.90
14473;DHT22;7322;50.872;4.386;2022-12-31T12:25:36;19.30;99.90
14473;DHT22;7322;50.872;4.386;2022-12-31T12:28:18;19.30;99.90
14473;DHT22;7322;50.872;4.386;2022-12-31T12:30:49;19.20;99.90
14473;DHT22;7322;50.872;4.386;2022-12-31T12:33:19;19.20;99.90
14473;DHT22;7322;50.872;4.386;2022-12-31T12:35:48;19.20;99.90
14473;DHT22;7322;50.872;4.386;2022-12-31T12:38:20;19.10;99.90
14473;DHT22;7322;50.872;4.386;2022-12-31T12:40:56;19.10;99.90
14473;DHT22;7322;50.872;4.386;2022-12-31T12:43:25;19.10;99.90
14473;DHT22;7322;50.872;4.386;2022-12-31T12:45:55;19.10;99.90
14473;DHT22;7322;50.872;4.386;2022-12-31T12:48:30;19.10;99.90
14473;DHT22;7322;50.872;4.386;2022-12-31T12:51:00;19.10;99.90
14473;DHT22;7322;50.872;4.386;2022-12-31T12:53:41;19.10;99.90
14473;DHT22;7322;50.872;4.386;2022-12-31T12:56:18;19.10;99.90
14473;DHT22;7322;50.872;4.386;2022-12-31T12:58:57;19.10;99.90
14473;DHT22;7322;50.872;4.386;2022-12-31T13:01:34;19.00;99.90
14473;DHT22;7322;50.872;4.386;2022-12-31T13:04:31;19.00;99.90
14473;DHT22;7322;50.872;4.386;2022-12-31T13:07:12;19.00;99.90
14473;DHT22;7322;50.872;4.386;2022-12-31T13:09:56;19.00;99.90
14473;DHT22;7322;50.872;4.386;2022-12-31T13:12:33;19.00;99.90
14473;DHT22;7322;50.872;4.386;2022-12-31T13:15:09;19.00;99.90
14473;DHT22;7322;50.872;4.386;2022-12-31T13:17:48;19.00;99.90
14473;DHT22;7322;50.872;4.386;2022-12-31T13:20:24;19.00;99.90
14473;DHT22;7322;50.872;4.386;2022-12-31T13:22:58;19.00;99.90
14473;DHT22;7322;50.872;4.386;2022-12-31T13:25:33;19.00;99.90
14473;DHT22;7322;50.872;4.386;2022-12-31T13:28:05;19.00;99.90
14473;DHT22;7322;50.872;4.386;2022-12-31T13:30:37;19.00;99.90
14473;DHT22;7322;50.872;4.386;2022-12-31T13:33:10;19.00;99.90
14473;DHT22;7322;50.872;4.386;2022-12-31T13:35:46;19.00;99.90
14473;DHT22;7322;50.872;4.386;2022-12-31T13:38:20;19.00;99.90
14473;DHT22;7322;50.872;4.386;2022-12-31T13:40:55;19.00;99.90
14473;DHT22;7322;50.872;4.386;2022-12-31T13:43:33;19.00;99.90
14473;DHT22;7322;50.872;4.386;2022-12-31T13:46:08;19.00;99.90
14473;DHT22;7322;50.872;4.386;2022-12-31T13:48:41;19.00;99.90
14473;DHT22;7322;50.872;4.386;2022-12-31T13:51:21;19.00;99.90
14473;DHT22;7322;50.872;4.386;2022-12-31T13:53:59;19.00;99.90
14473;DHT22;7322;50.872;4.386;2022-12-31T13:56:32;18.90;99.90
14473;DHT22;7322;50.872;4.386;2022-12-31T13:59:06;18.90;99.90
14473;DHT22;7322;50.872;4.386;2022-12-31T14:01:43;18.90;99.90
14473;DHT22;7322;50.872;4.386;2022-12-31T14:04:16;18.90;99.90
14473;DHT22;7322;50.872;4.386;2022-12-31T14:06:49;18.90;99.90
14473;DHT22;7322;50.872;4.386;2022-12-31T14:09:22;18.90;99.90
14473;DHT22;7322;50.872;4.386;2022-12-31T14:12:03;18.90;99.90
14473;DHT22;7322;50.872;4.386;2022-12-31T14:14:40;18.90;99.90
14473;DHT22;7322;50.872;4.386;2022-12-31T14:17:15;18.90;99.90
14473;DHT22;7322;50.872;4.386;2022-12-31T14:19:59;18.90;99.90
14473;DHT22;7322;50.872;4.386;2022-12-31T14:22:34;18.90;99.90
14473;DHT22;7322;50.872;4.386;2022-12-31T14:25:19;18.80;99.90
14473;DHT22;7322;50.872;4.386;2022-12-31T14:28:00;18.90;99.90
14473;DHT22;7322;50.872;4.386;2022-12-31T14:30:33;18.90;99.90
14473;DHT22;7322;50.872;4.386;2022-12-31T14:33:10;18.80;99.90
14473;DHT22;7322;50.872;4.386;2022-12-31T14:35:58;18.80;99.90
14473;DHT22;7322;50.872;4.386;2022-12-31T14:38:46;18.80;99.90
14473;DHT22;7322;50.872;4.386;2022-12-31T14:41:32;18.90;99.90
14473;DHT22;7322;50.872;4.386;2022-12-31T14:44:16;18.80;99.90
14473;DHT22;7322;50.872;4.386;2022-12-31T14:46:58;18.80;99.90
14473;DHT22;7322;50.872;4.386;2022-12-31T14:49:38;18.80;99.90
14473;DHT22;7322;50.872;4.386;2022-12-31T14:52:18;18.80;99.90
14473;DHT22;7322;50.872;4.386;2022-12-31T14:54:57;18.90;99.90
14473;DHT22;7322;50.872;4.386;2022-12-31T14:57:33;18.80;99.90
14473;DHT22;7322;50.872;4.386;2022-12-31T15:00:19;18.80;99.90
14473;DHT22;7322;50.872;4.386;2022-12-31T15:02:49;18.80;99.90
14473;DHT22;7322;50.872;4.386;2022-12-31T15:05:20;18.80;99.90
14473;DHT22;7322;50.872;4.386;2022-12-31T15:07:57;18.80;99.90
14473;DHT22;7322;50.872;4.386;2022-12-31T15:10:35;18.80;99.90
14473;DHT22;7322;50.872;4.386;2022-12-31T15:13:16;18.80;99.90
14473;DHT22;7322;50.872;4.386;2022-12-31T15:19:02;18.70;99.90
14473;DHT22;7322;50.872;4.386;2022-12-31T15:21:40;18.70;99.90
14473;DHT22;7322;50.872;4.386;2022-12-31T15:24:17;18.60;99.90
14473;DHT22;7322;50.872;4.386;2022-12-31T15:26:51;18.60;99.90
14473;DHT22;7322;50.872;4.386;2022-12-31T15:29:27;18.60;99.90
14473;DHT22;7322;50.872;4.386;2022-12-31T15:31:57;18.60;99.90
14473;DHT22;7322;50.872;4.386;2022-12-31T15:34:29;18.60;99.90
14473;DHT22;7322;50.872;4.386;2022-12-31T15:36:59;18.60;99.90
14473;DHT22;7322;50.872;4.386;2022-12-31T15:39:37;18.50;99.90
14473;DHT22;7322;50.872;4.386;2022-12-31T15:42:33;18.50;99.90
14473;DHT22;7322;50.872;4.386;2022-12-31T15:45:09;18.50;99.90
14473;DHT22;7322;50.872;4.386;2022-12-31T15:47:40;18.50;99.90
14473;DHT22;7322;50.872;4.386;2022-12-31T15:50:14;18.50;99.90
14473;DHT22;7322;50.872;4.386;2022-12-31T15:52:45;18.50;99.90
14473;DHT22;7322;50.872;4.386;2022-12-31T15:55:21;18.40;99.90
14473;DHT22;7322;50.872;4.386;2022-12-31T15:57:49;18.50;99.90
14473;DHT22;7322;50.872;4.386;2022-12-31T16:00:20;18.40;99.90
14473;DHT22;7322;50.872;4.386;2022-12-31T16:02:51;18.40;99.90
14473;DHT22;7322;50.872;4.386;2022-12-31T16:05:22;18.40;99.90
14473;DHT22;7322;50.872;4.386;2022-12-31T16:07:53;18.40;99.90
14473;DHT22;7322;50.872;4.386;2022-12-31T16:10:25;18.40;99.90
14473;DHT22;7322;50.872;4.386;2022-12-31T16:12:53;18.40;99.90
14473;DHT22;7322;50.872;4.386;2022-12-31T16:15:24;18.40;99.90
14473;DHT22;7322;50.872;4.386;2022-12-31T16:18:00;18.40;99.90
14473;DHT22;7322;50.872;4.386;2022-12-31T16:20:31;18.40;99.90
14473;DHT22;7322;50.872;4.386;2022-12-31T16:23:00;18.40;99.90
14473;DHT22;7322;50.872;4.386;2022-12-31T16:25:30;18.40;99.90
14473;DHT22;7322;50.872;4.386;2022-12-31T16:27:57;18.30;99.90
14473;DHT22;7322;50.872;4.386;2022-12-31T16:30:28;18.40;99.90
14473;DHT22;7322;50.872;4.386;2022-12-31T16:33:00;18.30;99.90
14473;DHT22;7322;50.872;4.386;2022-12-31T16:35:29;18.30;99.90
14473;DHT22;7322;50.872;4.386;2022-12-31T16:38:01;18.30;99.90
14473;DHT22;7322;50.872;4.386;2022-12-31T16:40:30;18.30;99.90
14473;DHT22;7322;50.872;4.386;2022-12-31T16:42:57;18.30;99.90
14473;DHT22;7322;50.872;4.386;2022-12-31T16:45:31;18.30;99.90
14473;DHT22;7322;50.872;4.386;2022-12-31T16:48:05;18.30;99.90
14473;DHT22;7322;50.872;4.386;2022-12-31T16:50:33;18.30;99.90
14473;DHT22;7322;50.872;4.386;2022-12-31T16:53:03;18.30;99.90
14473;DHT22;7322;50.872;4.386;2022-12-31T16:55:34;18.30;99.90
14473;DHT22;7322;50.872;4.386;2022-12-31T16:58:06;18.30;99.90
14473;DHT22;7322;50.872;4.386;2022-12-31T17:00:38;18.30;99.90
14473;DHT22;7322;50.872;4.386;2022-12-31T17:03:16;18.30;99.90
14473;DHT22;7322;50.872;4.386;2022-12-31T17:05:56;18.30;99.90
14473;DHT22;7322;50.872;4.386;2022-12-31T17:08:27;18.30;99.90